createdAt,value
2024-02-29T00:02:47.593Z,100850.97
2024-02-29T00:07:53.445Z,100858.96
2024-02-29T00:13:17.221Z,100862.48
2024-02-29T00:18:39.405Z,100862.92
2024-02-29T00:24:03.301Z,100865.52
2024-02-29T00:29:26.765Z,100864.63
2024-02-29T00:34:56.075Z,100865.70
2024-02-29T00:40:20.161Z,100869.64
2024-02-29T00:45:56.677Z,100871.32
2024-02-29T00:51:05.765Z,100865.88
2024-02-29T00:56:24.177Z,100863.52
2024-02-29T01:01:33.545Z,100862.81
2024-02-29T01:06:50.750Z,100860.88
2024-02-29T01:12:15.912Z,100863.35
2024-02-29T01:17:49.953Z,100859.10
2024-02-29T01:23:16.364Z,100861.46
2024-02-29T01:29:00.274Z,100859.88
2024-02-29T01:34:06.764Z,100852.45
2024-02-29T01:39:12.529Z,100852.01
2024-02-29T01:44:28.799Z,100849.56
2024-02-29T01:50:05.973Z,100855.43
2024-02-29T01:55:20.302Z,100859.01
2024-02-29T02:00:23.588Z,100853.17
2024-02-29T02:05:36.270Z,100848.20
2024-02-29T02:10:48.694Z,100851.16
2024-02-29T02:15:54.795Z,100848.95
2024-02-29T02:21:09.164Z,100851.98
2024-02-29T02:26:24.185Z,100845.77
2024-02-29T02:31:28.016Z,100839.75
2024-02-29T02:36:31.480Z,100843.40
2024-02-29T02:41:55.363Z,100846.85
2024-02-29T02:47:01.947Z,100844.15
2024-02-29T02:52:05.711Z,100844.42
2024-02-29T02:57:17.911Z,100838.31
2024-02-29T03:02:41.828Z,100839.29
2024-02-29T03:08:16.117Z,100840.14
2024-02-29T03:13:29.077Z,100836.93
2024-02-29T03:18:35.521Z,100835.56
2024-02-29T03:24:06.879Z,100837.48
2024-02-29T03:29:23.423Z,100832.38
2024-02-29T03:34:29.147Z,100826.33
2024-02-29T03:39:45.728Z,100825.85
2024-02-29T03:45:09.545Z,100829.30
2024-02-29T03:50:20.640Z,100828.48
2024-02-29T03:55:45.012Z,100827.62
2024-02-29T04:00:53.524Z,100828.02
2024-02-29T04:06:57.750Z,100825.06
2024-02-29T04:12:44.782Z,100823.57
2024-02-29T04:18:02.722Z,100818.16
2024-02-29T04:23:17.692Z,100825.31
2024-02-29T04:28:41.246Z,100831.55
2024-02-29T04:34:19.287Z,100831.27
2024-02-29T04:39:46.859Z,100828.48
2024-02-29T04:45:01.968Z,100824.26
2024-02-29T04:50:09.353Z,100823.03
2024-02-29T04:55:33.036Z,100824.35
2024-02-29T05:00:59.984Z,100826.13
2024-02-29T05:06:15.133Z,100821.02
2024-02-29T05:11:41.037Z,100821.00
2024-02-29T05:16:54.663Z,100821.55
2024-02-29T05:22:03.756Z,100826.63
2024-02-29T05:27:07.508Z,100827.30
2024-02-29T05:32:11.100Z,100839.41
2024-02-29T05:37:17.904Z,100843.29
2024-02-29T05:42:23.750Z,100848.84
2024-02-29T05:47:27.494Z,100854.37
2024-02-29T05:52:33.556Z,100851.94
2024-02-29T05:57:37.233Z,100848.30
2024-02-29T06:02:52.109Z,100851.11
2024-02-29T06:08:23.408Z,100851.06
2024-02-29T06:13:28.578Z,100848.87
2024-02-29T06:19:12.674Z,100850.31
2024-02-29T06:24:58.135Z,100846.38
2024-02-29T06:30:05.768Z,100844.29
2024-02-29T06:35:24.181Z,100851.64
2024-02-29T06:40:37.481Z,100848.71
2024-02-29T06:45:56.919Z,100847.11
2024-02-29T06:51:00.686Z,100851.89
2024-02-29T06:56:05.584Z,100856.22
2024-02-29T07:01:09.325Z,100854.30
2024-02-29T07:06:12.996Z,100849.63
2024-02-29T07:11:16.734Z,100851.33
2024-02-29T07:16:52.004Z,100849.44
2024-02-29T07:21:55.660Z,100847.67
2024-02-29T07:27:22.529Z,100849.64
2024-02-29T07:32:26.088Z,100846.64
2024-02-29T07:37:41.116Z,100849.30
2024-02-29T07:42:44.822Z,100849.70
2024-02-29T07:48:17.852Z,100840.75
2024-02-29T07:53:21.478Z,100838.39
2024-02-29T07:58:28.318Z,100836.42
2024-02-29T08:03:47.481Z,100836.11
2024-02-29T08:08:53.918Z,100834.95
2024-02-29T08:13:57.709Z,100834.27
2024-02-29T08:19:08.632Z,100831.27
2024-02-29T08:24:12.330Z,100829.26
2024-02-29T08:29:18.013Z,100831.96
2024-02-29T08:34:21.594Z,100827.59
2024-02-29T08:39:35.278Z,100829.69
2024-02-29T08:44:43.953Z,100819.86
2024-02-29T08:49:47.419Z,100813.21
2024-02-29T08:54:51.180Z,100806.20
2024-02-29T09:00:00.901Z,100794.27
2024-02-29T09:05:26.710Z,100795.51
2024-02-29T09:10:31.114Z,100790.08
2024-02-29T09:15:35.099Z,100792.70
2024-02-29T09:20:38.574Z,100796.31
2024-02-29T09:25:45.535Z,100794.16
2024-02-29T09:30:49.165Z,100794.83
2024-02-29T09:35:59.405Z,100795.66
2024-02-29T09:41:13.207Z,100795.61
2024-02-29T09:46:29.181Z,100802.68
2024-02-29T09:51:33.547Z,100810.43
2024-02-29T09:56:36.884Z,100821.23
2024-02-29T10:01:41.786Z,100817.91
2024-02-29T10:06:46.056Z,100817.58
2024-02-29T10:11:50.035Z,100815.20
2024-02-29T10:16:54.746Z,100809.23
2024-02-29T10:21:58.987Z,100801.42
2024-02-29T10:27:03.763Z,100794.95
2024-02-29T10:32:07.507Z,100787.81
2024-02-29T10:37:11.195Z,100784.09
2024-02-29T10:42:18.466Z,100775.96
2024-02-29T10:47:32.394Z,100772.47
2024-02-29T10:52:46.069Z,100765.07
2024-02-29T10:58:18.467Z,100772.91
2024-02-29T11:03:23.192Z,100767.10
2024-02-29T11:08:27.182Z,100768.87
2024-02-29T11:13:30.833Z,100769.08
2024-02-29T11:18:37.019Z,100762.44
2024-02-29T11:23:42.305Z,100753.87
2024-02-29T11:28:50.337Z,100746.13
2024-02-29T11:33:53.875Z,100741.16
2024-02-29T11:38:57.240Z,100742.70
2024-02-29T11:44:00.538Z,100739.06
2024-02-29T11:49:04.013Z,100734.03
2024-02-29T11:54:07.619Z,100728.78
2024-02-29T11:59:12.423Z,100723.15
2024-02-29T12:04:16.907Z,100708.31
2024-02-29T12:09:20.534Z,100707.59
2024-02-29T12:14:24.118Z,100709.05
2024-02-29T12:19:27.502Z,100705.88
2024-02-29T12:24:34.824Z,100699.61
2024-02-29T12:29:38.472Z,100693.59
2024-02-29T12:34:44.795Z,100685.69
2024-02-29T12:39:57.891Z,100688.16
2024-02-29T12:45:01.522Z,100683.20
2024-02-29T12:50:09.176Z,100676.22
2024-02-29T12:55:13.952Z,100665.17
2024-02-29T13:00:26.759Z,100653.20
2024-02-29T13:05:30.261Z,100648.35
2024-02-29T13:10:33.867Z,100646.88
2024-02-29T13:15:37.329Z,100649.20
2024-02-29T13:20:41.520Z,100644.79
2024-02-29T13:25:44.899Z,100638.27
2024-02-29T13:30:50.023Z,100637.05
2024-02-29T13:35:53.546Z,100631.93
2024-02-29T13:40:56.873Z,100628.89
2024-02-29T13:46:00.472Z,100627.52
2024-02-29T13:51:03.942Z,100622.48
2024-02-29T13:56:07.369Z,100617.79
2024-02-29T14:01:11.295Z,100616.56
2024-02-29T14:06:14.979Z,100609.39
2024-02-29T14:11:18.440Z,100603.78
2024-02-29T14:16:22.461Z,100603.78
2024-02-29T14:21:25.868Z,100602.66
2024-02-29T14:26:29.612Z,100601.27
2024-02-29T14:31:32.963Z,100593.81
2024-02-29T14:36:38.619Z,100589.14
2024-02-29T14:41:45.281Z,100583.34
2024-02-29T14:46:49.566Z,100577.89
2024-02-29T14:51:57.400Z,100566.95
2024-02-29T14:57:01.871Z,100565.44
2024-02-29T15:02:05.802Z,100559.85
2024-02-29T15:07:10.391Z,100551.34
2024-02-29T15:12:14.013Z,100542.39
2024-02-29T15:17:17.468Z,100539.64
2024-02-29T15:22:21.787Z,100533.87
2024-02-29T15:27:25.281Z,100531.50
2024-02-29T15:32:34.682Z,100528.34
2024-02-29T15:37:38.579Z,100522.96
2024-02-29T15:42:42.410Z,100526.00
2024-02-29T15:47:46.939Z,100522.33
2024-02-29T15:52:50.872Z,100519.68
2024-02-29T15:57:54.917Z,100522.72
2024-02-29T16:02:58.415Z,100519.62
2024-02-29T16:08:03.065Z,100518.20
2024-02-29T16:13:13.987Z,100514.70
2024-02-29T16:18:27.848Z,100510.98
2024-02-29T16:23:40.700Z,100502.62
2024-02-29T16:28:55.635Z,100500.83
2024-02-29T16:34:14.495Z,100505.14
2024-02-29T16:39:18.329Z,100496.81
2024-02-29T16:44:24.716Z,100500.79
2024-02-29T16:49:41.863Z,100497.70
2024-02-29T16:54:45.260Z,100496.67
2024-02-29T17:00:11.423Z,100498.84
2024-02-29T17:05:15.182Z,100493.70
2024-02-29T17:10:35.060Z,100497.00
2024-02-29T17:15:50.536Z,100495.92
2024-02-29T17:20:56.875Z,100493.10
2024-02-29T17:26:21.442Z,100490.79
2024-02-29T17:31:34.245Z,100485.16
2024-02-29T17:36:37.713Z,100486.61
2024-02-29T17:41:44.457Z,100484.23
2024-02-29T17:46:47.862Z,100487.46
2024-02-29T17:51:54.096Z,100487.48
2024-02-29T17:56:57.707Z,100487.02
2024-02-29T18:02:01.398Z,100482.09
2024-02-29T18:07:05.501Z,100479.59
2024-02-29T18:12:09.310Z,100476.64
2024-02-29T18:17:12.638Z,100478.46
2024-02-29T18:22:16.431Z,100477.63
2024-02-29T18:27:23.084Z,100483.89
2024-02-29T18:32:29.359Z,100482.83
2024-02-29T18:37:34.650Z,100482.16
2024-02-29T18:42:41.320Z,100475.48
2024-02-29T18:47:47.655Z,100474.73
2024-02-29T18:52:51.504Z,100473.02
2024-02-29T18:57:54.926Z,100463.61
2024-02-29T19:02:58.421Z,100457.09
2024-02-29T19:08:06.470Z,100456.77
2024-02-29T19:13:12.438Z,100453.63
2024-02-29T19:18:19.870Z,100451.35
2024-02-29T19:23:23.391Z,100445.23
2024-02-29T19:28:28.976Z,100443.99
2024-02-29T19:33:32.811Z,100434.64
2024-02-29T19:38:36.193Z,100428.37
2024-02-29T19:43:39.632Z,100421.66
2024-02-29T19:48:50.657Z,100416.52
2024-02-29T19:53:54.346Z,100413.00
2024-02-29T19:58:57.830Z,100405.86
2024-02-29T20:04:01.630Z,100400.46
2024-02-29T20:09:09.500Z,100396.02
2024-02-29T20:14:13.082Z,100393.80
2024-02-29T20:19:16.557Z,100388.10
2024-02-29T20:24:20.140Z,100382.23
2024-02-29T20:29:23.791Z,100378.31
2024-02-29T20:34:27.539Z,100373.80
2024-02-29T20:39:34.295Z,100367.58
2024-02-29T20:44:38.322Z,100362.35
2024-02-29T20:49:41.829Z,100361.20
2024-02-29T20:54:48.005Z,100360.56
2024-02-29T20:59:52.080Z,100359.23
2024-02-29T21:05:05.338Z,100352.30
2024-02-29T21:10:10.086Z,100350.59
2024-02-29T21:15:17.091Z,100347.40
2024-02-29T21:20:27.677Z,100344.15
2024-02-29T21:25:31.437Z,100341.85
2024-02-29T21:30:35.168Z,100338.24
2024-02-29T21:35:41.506Z,100338.35
2024-02-29T21:40:44.950Z,100338.23
2024-02-29T21:45:48.504Z,100340.29
2024-02-29T21:50:55.245Z,100333.27
2024-02-29T21:55:58.897Z,100327.86
2024-02-29T22:01:12.137Z,100318.52
2024-02-29T22:06:39.092Z,100317.99
2024-02-29T22:11:47.677Z,100311.46
2024-02-29T22:16:51.528Z,100311.15
2024-02-29T22:21:55.265Z,100301.02
2024-02-29T22:26:59.127Z,100300.12
2024-02-29T22:32:08.437Z,100306.40
2024-02-29T22:37:16.035Z,100300.60
2024-02-29T22:42:20.552Z,100300.08
2024-02-29T22:47:26.728Z,100294.14
2024-02-29T22:52:30.331Z,100291.24
2024-02-29T22:57:41.424Z,100285.83
2024-02-29T23:02:44.993Z,100280.64
2024-02-29T23:07:48.545Z,100277.11
2024-02-29T23:12:51.935Z,100283.95
2024-02-29T23:17:57.210Z,100283.86
2024-02-29T23:23:02.026Z,100283.04
2024-02-29T23:28:14.467Z,100281.48
2024-02-29T23:33:17.891Z,100277.05
2024-02-29T23:38:21.593Z,100272.49
2024-02-29T23:43:25.069Z,100268.65
2024-02-29T23:48:28.642Z,100261.83
2024-02-29T23:53:32.037Z,100253.21
2024-02-29T23:58:37.265Z,100253.02
